sensor_id;sensor_type;location;lat;lon;timestamp;temperature;humidity
52036;DHT22;38046;49.448;32.074;2023-04-29T00:00:52;9.80;67.50
52036;DHT22;38046;49.448;32.074;2023-04-29T00:03:17;9.70;67.80
52036;DHT22;38046;49.448;32.074;2023-04-29T00:05:44;9.70;67.80
52036;DHT22;38046;49.448;32.074;2023-04-29T00:08:09;9.70;67.80
52036;DHT22;38046;49.448;32.074;2023-04-29T00:10:36;9.70;67.60
52036;DHT22;38046;49.448;32.074;2023-04-29T00:13:02;9.70;67.60
52036;DHT22;38046;49.448;32.074;2023-04-29T00:15:27;9.70;67.60
52036;DHT22;38046;49.448;32.074;2023-04-29T00:17:53;9.70;67.30
52036;DHT22;38046;49.448;32.074;2023-04-29T00:20:20;9.60;67.50
52036;DHT22;38046;49.448;32.074;2023-04-29T00:22:45;9.60;68.20
52036;DHT22;38046;49.448;32.074;2023-04-29T00:25:11;9.60;67.40
52036;DHT22;38046;49.448;32.074;2023-04-29T00:27:37;9.60;67.40
52036;DHT22;38046;49.448;32.074;2023-04-29T00:30:05;9.60;67.20
52036;DHT22;38046;49.448;32.074;2023-04-29T00:32:31;9.60;67.40
52036;DHT22;38046;49.448;32.074;2023-04-29T00:34:57;9.60;67.70
52036;DHT22;38046;49.448;32.074;2023-04-29T00:37:22;9.50;67.50
52036;DHT22;38046;49.448;32.074;2023-04-29T00:39:48;9.60;67.40
52036;DHT22;38046;49.448;32.074;2023-04-29T00:42:14;9.50;67.60
52036;DHT22;38046;49.448;32.074;2023-04-29T00:44:39;9.50;67.70
52036;DHT22;38046;49.448;32.074;2023-04-29T00:47:05;9.50;67.60
52036;DHT22;38046;49.448;32.074;2023-04-29T00:49:38;9.50;67.30
52036;DHT22;38046;49.448;32.074;2023-04-29T00:52:04;9.50;67.30
52036;DHT22;38046;49.448;32.074;2023-04-29T00:54:33;9.50;67.10
52036;DHT22;38046;49.448;32.074;2023-04-29T00:57:00;9.50;67.20
52036;DHT22;38046;49.448;32.074;2023-04-29T00:59:27;9.50;67.30
52036;DHT22;38046;49.448;32.074;2023-04-29T01:01:58;9.50;67.60
52036;DHT22;38046;49.448;32.074;2023-04-29T01:04:24;9.50;67.70
52036;DHT22;38046;49.448;32.074;2023-04-29T01:07:28;9.50;67.70
52036;DHT22;38046;49.448;32.074;2023-04-29T01:10:09;9.50;67.10
52036;DHT22;38046;49.448;32.074;2023-04-29T01:12:44;9.40;68.10
52036;DHT22;38046;49.448;32.074;2023-04-29T01:15:21;9.50;67.70
52036;DHT22;38046;49.448;32.074;2023-04-29T01:17:59;9.40;67.50
52036;DHT22;38046;49.448;32.074;2023-04-29T01:20:29;9.40;67.50
52036;DHT22;38046;49.448;32.074;2023-04-29T01:22:55;9.40;67.40
52036;DHT22;38046;49.448;32.074;2023-04-29T01:25:24;9.30;67.30
52036;DHT22;38046;49.448;32.074;2023-04-29T01:28:21;9.30;67.30
52036;DHT22;38046;49.448;32.074;2023-04-29T01:34:09;9.30;67.60
52036;DHT22;38046;49.448;32.074;2023-04-29T01:37:14;9.30;68.10
52036;DHT22;38046;49.448;32.074;2023-04-29T01:40:15;9.30;67.70
52036;DHT22;38046;49.448;32.074;2023-04-29T01:43:00;9.30;67.90
52036;DHT22;38046;49.448;32.074;2023-04-29T01:45:26;9.20;67.80
52036;DHT22;38046;49.448;32.074;2023-04-29T01:47:53;9.20;67.60
52036;DHT22;38046;49.448;32.074;2023-04-29T01:50:23;9.20;67.60
52036;DHT22;38046;49.448;32.074;2023-04-29T01:52:49;9.20;67.60
52036;DHT22;38046;49.448;32.074;2023-04-29T01:55:15;9.20;67.70
52036;DHT22;38046;49.448;32.074;2023-04-29T01:57:40;9.20;68.00
52036;DHT22;38046;49.448;32.074;2023-04-29T02:00:06;9.10;68.00
52036;DHT22;38046;49.448;32.074;2023-04-29T02:02:33;9.10;68.10
52036;DHT22;38046;49.448;32.074;2023-04-29T02:04:59;9.10;68.00
52036;DHT22;38046;49.448;32.074;2023-04-29T02:07:25;9.10;68.20
52036;DHT22;38046;49.448;32.074;2023-04-29T02:09:50;9.10;68.20
52036;DHT22;38046;49.448;32.074;2023-04-29T02:12:16;9.10;68.40
52036;DHT22;38046;49.448;32.074;2023-04-29T02:14:41;9.00;68.00
52036;DHT22;38046;49.448;32.074;2023-04-29T02:17:07;9.00;68.00
52036;DHT22;38046;49.448;32.074;2023-04-29T02:19:33;9.10;68.30
52036;DHT22;38046;49.448;32.074;2023-04-29T02:21:58;9.00;68.10
52036;DHT22;38046;49.448;32.074;2023-04-29T02:24:24;9.00;68.20
52036;DHT22;38046;49.448;32.074;2023-04-29T02:26:50;9.00;68.20
52036;DHT22;38046;49.448;32.074;2023-04-29T02:29:15;9.00;68.20
52036;DHT22;38046;49.448;32.074;2023-04-29T02:31:41;9.00;68.20
52036;DHT22;38046;49.448;32.074;2023-04-29T02:34:07;9.00;68.10
52036;DHT22;38046;49.448;32.074;2023-04-29T02:36:33;9.00;68.00
52036;DHT22;38046;49.448;32.074;2023-04-29T02:38:59;9.00;68.30
52036;DHT22;38046;49.448;32.074;2023-04-29T02:41:24;8.90;68.10
52036;DHT22;38046;49.448;32.074;2023-04-29T02:43:50;8.90;68.20
52036;DHT22;38046;49.448;32.074;2023-04-29T02:46:16;8.90;68.30
52036;DHT22;38046;49.448;32.074;2023-04-29T02:48:43;8.90;68.50
52036;DHT22;38046;49.448;32.074;2023-04-29T02:51:08;8.90;68.40
52036;DHT22;38046;49.448;32.074;2023-04-29T02:53:34;8.90;68.40
52036;DHT22;38046;49.448;32.074;2023-04-29T02:56:00;8.90;68.30
52036;DHT22;38046;49.448;32.074;2023-04-29T02:58:26;8.90;68.50
52036;DHT22;38046;49.448;32.074;2023-04-29T03:00:52;8.90;68.50
52036;DHT22;38046;49.448;32.074;2023-04-29T03:03:17;8.90;68.40
52036;DHT22;38046;49.448;32.074;2023-04-29T03:05:43;8.90;68.40
52036;DHT22;38046;49.448;32.074;2023-04-29T03:08:09;8.90;68.60
52036;DHT22;38046;49.448;32.074;2023-04-29T03:10:35;8.80;68.30
52036;DHT22;38046;49.448;32.074;2023-04-29T03:13:01;8.90;68.40
52036;DHT22;38046;49.448;32.074;2023-04-29T03:15:27;8.90;68.10
52036;DHT22;38046;49.448;32.074;2023-04-29T03:17:53;8.90;68.40
52036;DHT22;38046;49.448;32.074;2023-04-29T03:20:20;8.90;68.50
52036;DHT22;38046;49.448;32.074;2023-04-29T03:22:45;8.90;68.70
52036;DHT22;38046;49.448;32.074;2023-04-29T03:25:11;8.90;68.40
52036;DHT22;38046;49.448;32.074;2023-04-29T03:27:37;8.90;68.40
52036;DHT22;38046;49.448;32.074;2023-04-29T03:30:04;8.90;68.50
52036;DHT22;38046;49.448;32.074;2023-04-29T03:32:30;9.00;68.50
52036;DHT22;38046;49.448;32.074;2023-04-29T03:34:55;9.00;68.50
52036;DHT22;38046;49.448;32.074;2023-04-29T03:37:22;9.00;68.40
52036;DHT22;38046;49.448;32.074;2023-04-29T03:39:47;9.00;68.30
52036;DHT22;38046;49.448;32.074;2023-04-29T03:42:13;9.00;68.20
52036;DHT22;38046;49.448;32.074;2023-04-29T03:44:38;9.00;68.30
52036;DHT22;38046;49.448;32.074;2023-04-29T03:47:04;9.00;68.40
52036;DHT22;38046;49.448;32.074;2023-04-29T03:49:31;9.00;68.50
52036;DHT22;38046;49.448;32.074;2023-04-29T03:51:56;9.00;68.40
52036;DHT22;38046;49.448;32.074;2023-04-29T03:54:22;9.10;68.50
52036;DHT22;38046;49.448;32.074;2023-04-29T03:56:48;9.10;68.40
52036;DHT22;38046;49.448;32.074;2023-04-29T03:59:13;9.10;68.50
52036;DHT22;38046;49.448;32.074;2023-04-29T04:01:39;9.10;68.70
52036;DHT22;38046;49.448;32.074;2023-04-29T04:04:05;9.20;68.60
52036;DHT22;38046;49.448;32.074;2023-04-29T04:06:31;9.30;68.30
52036;DHT22;38046;49.448;32.074;2023-04-29T04:08:56;9.60;69.20
52036;DHT22;38046;49.448;32.074;2023-04-29T04:11:22;9.80;68.20
52036;DHT22;38046;49.448;32.074;2023-04-29T04:13:48;10.20;68.40
52036;DHT22;38046;49.448;32.074;2023-04-29T04:16:14;10.60;67.60
52036;DHT22;38046;49.448;32.074;2023-04-29T04:18:39;11.00;67.00
52036;DHT22;38046;49.448;32.074;2023-04-29T04:21:09;11.30;65.80
52036;DHT22;38046;49.448;32.074;2023-04-29T04:23:36;11.50;64.80
52036;DHT22;38046;49.448;32.074;2023-04-29T04:26:04;11.40;64.10
52036;DHT22;38046;49.448;32.074;2023-04-29T04:28:30;11.30;64.20
52036;DHT22;38046;49.448;32.074;2023-04-29T04:30:56;11.10;63.80
52036;DHT22;38046;49.448;32.074;2023-04-29T04:33:21;10.90;63.80
52036;DHT22;38046;49.448;32.074;2023-04-29T04:35:47;10.70;64.10
52036;DHT22;38046;49.448;32.074;2023-04-29T04:38:13;10.50;63.90
52036;DHT22;38046;49.448;32.074;2023-04-29T04:40:42;10.40;64.30
52036;DHT22;38046;49.448;32.074;2023-04-29T04:43:08;10.20;64.30
52036;DHT22;38046;49.448;32.074;2023-04-29T04:45:34;10.10;64.40
52036;DHT22;38046;49.448;32.074;2023-04-29T04:47:59;10.00;64.80
52036;DHT22;38046;49.448;32.074;2023-04-29T04:50:28;9.90;65.00
52036;DHT22;38046;49.448;32.074;2023-04-29T04:52:54;9.90;65.20
52036;DHT22;38046;49.448;32.074;2023-04-29T04:55:21;9.80;65.40
52036;DHT22;38046;49.448;32.074;2023-04-29T04:57:46;9.80;65.50
52036;DHT22;38046;49.448;32.074;2023-04-29T05:00:12;9.80;65.80
52036;DHT22;38046;49.448;32.074;2023-04-29T05:02:38;9.80;65.70
52036;DHT22;38046;49.448;32.074;2023-04-29T05:05:04;9.80;65.80
52036;DHT22;38046;49.448;32.074;2023-04-29T05:07:31;9.80;65.80
52036;DHT22;38046;49.448;32.074;2023-04-29T05:09:56;9.80;65.80
52036;DHT22;38046;49.448;32.074;2023-04-29T05:12:22;9.80;66.00
52036;DHT22;38046;49.448;32.074;2023-04-29T05:14:52;9.80;66.50
52036;DHT22;38046;49.448;32.074;2023-04-29T05:17:17;9.90;66.50
52036;DHT22;38046;49.448;32.074;2023-04-29T05:19:43;9.90;66.70
52036;DHT22;38046;49.448;32.074;2023-04-29T05:22:09;9.90;66.60
52036;DHT22;38046;49.448;32.074;2023-04-29T05:24:34;10.00;66.40
52036;DHT22;38046;49.448;32.074;2023-04-29T05:27:00;10.00;66.50
52036;DHT22;38046;49.448;32.074;2023-04-29T05:29:26;10.00;66.70
52036;DHT22;38046;49.448;32.074;2023-04-29T05:31:52;10.10;66.90
52036;DHT22;38046;49.448;32.074;2023-04-29T05:34:18;10.10;66.60
52036;DHT22;38046;49.448;32.074;2023-04-29T05:36:43;10.10;66.60
52036;DHT22;38046;49.448;32.074;2023-04-29T05:39:09;10.10;66.70
52036;DHT22;38046;49.448;32.074;2023-04-29T05:41:35;10.10;66.90
52036;DHT22;38046;49.448;32.074;2023-04-29T05:44:00;10.20;67.00
52036;DHT22;38046;49.448;32.074;2023-04-29T05:46:26;10.20;67.00
52036;DHT22;38046;49.448;32.074;2023-04-29T05:48:51;10.30;67.30
52036;DHT22;38046;49.448;32.074;2023-04-29T05:51:17;10.30;67.30
52036;DHT22;38046;49.448;32.074;2023-04-29T05:53:43;10.40;67.20
52036;DHT22;38046;49.448;32.074;2023-04-29T05:56:08;10.40;67.10
52036;DHT22;38046;49.448;32.074;2023-04-29T05:58:35;10.50;67.40
52036;DHT22;38046;49.448;32.074;2023-04-29T06:01:00;10.50;67.30
52036;DHT22;38046;49.448;32.074;2023-04-29T06:03:27;10.60;67.30
52036;DHT22;38046;49.448;32.074;2023-04-29T06:05:52;10.70;67.30
52036;DHT22;38046;49.448;32.074;2023-04-29T06:08:18;10.70;67.30
52036;DHT22;38046;49.448;32.074;2023-04-29T06:10:44;10.80;67.30
52036;DHT22;38046;49.448;32.074;2023-04-29T06:13:10;10.80;67.10
52036;DHT22;38046;49.448;32.074;2023-04-29T06:15:36;10.90;67.10
52036;DHT22;38046;49.448;32.074;2023-04-29T06:18:02;11.00;67.10
52036;DHT22;38046;49.448;32.074;2023-04-29T06:20:28;11.10;67.80
52036;DHT22;38046;49.448;32.074;2023-04-29T06:22:53;11.10;67.10
52036;DHT22;38046;49.448;32.074;2023-04-29T06:25:19;11.20;66.90
52036;DHT22;38046;49.448;32.074;2023-04-29T06:27:44;11.30;66.90
52036;DHT22;38046;49.448;32.074;2023-04-29T06:30:10;11.30;66.80
52036;DHT22;38046;49.448;32.074;2023-04-29T06:32:38;11.30;66.70
52036;DHT22;38046;49.448;32.074;2023-04-29T06:35:03;11.40;66.60
52036;DHT22;38046;49.448;32.074;2023-04-29T06:37:29;11.50;66.40
52036;DHT22;38046;49.448;32.074;2023-04-29T06:39:55;11.50;65.80
52036;DHT22;38046;49.448;32.074;2023-04-29T06:42:20;11.60;65.00
52036;DHT22;38046;49.448;32.074;2023-04-29T06:44:46;11.60;64.80
52036;DHT22;38046;49.448;32.074;2023-04-29T06:47:11;11.60;63.70
52036;DHT22;38046;49.448;32.074;2023-04-29T06:49:37;11.70;63.80
52036;DHT22;38046;49.448;32.074;2023-04-29T06:52:03;11.80;63.90
52036;DHT22;38046;49.448;32.074;2023-04-29T06:54:29;11.80;64.40
52036;DHT22;38046;49.448;32.074;2023-04-29T06:56:54;11.90;63.70
52036;DHT22;38046;49.448;32.074;2023-04-29T06:59:20;12.00;63.20
52036;DHT22;38046;49.448;32.074;2023-04-29T07:01:46;12.20;62.70
52036;DHT22;38046;49.448;32.074;2023-04-29T07:04:11;12.30;61.70
52036;DHT22;38046;49.448;32.074;2023-04-29T07:06:37;12.40;61.30
52036;DHT22;38046;49.448;32.074;2023-04-29T07:09:03;12.60;60.60
52036;DHT22;38046;49.448;32.074;2023-04-29T07:11:29;12.70;59.70
52036;DHT22;38046;49.448;32.074;2023-04-29T07:13:54;12.80;59.50
52036;DHT22;38046;49.448;32.074;2023-04-29T07:16:20;12.90;59.70
52036;DHT22;38046;49.448;32.074;2023-04-29T07:18:47;12.90;59.40
52036;DHT22;38046;49.448;32.074;2023-04-29T07:21:13;13.00;58.60
52036;DHT22;38046;49.448;32.074;2023-04-29T07:23:39;13.10;58.10
52036;DHT22;38046;49.448;32.074;2023-04-29T07:26:12;13.20;57.90
52036;DHT22;38046;49.448;32.074;2023-04-29T07:28:38;13.20;57.40
52036;DHT22;38046;49.448;32.074;2023-04-29T07:31:05;13.20;57.20
52036;DHT22;38046;49.448;32.074;2023-04-29T07:33:32;13.30;57.40
52036;DHT22;38046;49.448;32.074;2023-04-29T07:35:58;13.30;57.30
52036;DHT22;38046;49.448;32.074;2023-04-29T07:38:24;13.40;57.50
52036;DHT22;38046;49.448;32.074;2023-04-29T07:40:49;13.40;56.70
52036;DHT22;38046;49.448;32.074;2023-04-29T07:43:15;13.40;55.80
52036;DHT22;38046;49.448;32.074;2023-04-29T07:45:41;13.40;54.90
52036;DHT22;38046;49.448;32.074;2023-04-29T07:48:06;13.30;54.90
52036;DHT22;38046;49.448;32.074;2023-04-29T07:50:35;13.30;55.00
52036;DHT22;38046;49.448;32.074;2023-04-29T07:53:02;13.30;54.30
52036;DHT22;38046;49.448;32.074;2023-04-29T07:55:28;13.20;54.60
52036;DHT22;38046;49.448;32.074;2023-04-29T07:57:57;13.20;54.30
52036;DHT22;38046;49.448;32.074;2023-04-29T08:00:23;13.20;54.00
52036;DHT22;38046;49.448;32.074;2023-04-29T08:02:53;13.20;54.30
52036;DHT22;38046;49.448;32.074;2023-04-29T08:05:19;13.20;54.10
52036;DHT22;38046;49.448;32.074;2023-04-29T08:07:48;13.20;53.30
52036;DHT22;38046;49.448;32.074;2023-04-29T08:10:15;13.10;52.80
52036;DHT22;38046;49.448;32.074;2023-04-29T08:12:40;13.00;52.40
52036;DHT22;38046;49.448;32.074;2023-04-29T08:15:07;13.00;52.50
52036;DHT22;38046;49.448;32.074;2023-04-29T08:17:32;13.00;53.60
52036;DHT22;38046;49.448;32.074;2023-04-29T08:19:58;12.90;52.80
52036;DHT22;38046;49.448;32.074;2023-04-29T08:22:24;12.90;52.70
52036;DHT22;38046;49.448;32.074;2023-04-29T08:24:49;12.90;52.10
52036;DHT22;38046;49.448;32.074;2023-04-29T08:27:15;12.90;52.50
52036;DHT22;38046;49.448;32.074;2023-04-29T08:29:41;12.80;53.20
52036;DHT22;38046;49.448;32.074;2023-04-29T08:32:07;12.90;52.90
52036;DHT22;38046;49.448;32.074;2023-04-29T08:34:33;12.90;52.60
52036;DHT22;38046;49.448;32.074;2023-04-29T08:37:01;12.90;52.50
52036;DHT22;38046;49.448;32.074;2023-04-29T08:39:28;12.90;52.70
52036;DHT22;38046;49.448;32.074;2023-04-29T08:41:56;12.90;53.50
52036;DHT22;38046;49.448;32.074;2023-04-29T08:44:21;12.90;53.00
52036;DHT22;38046;49.448;32.074;2023-04-29T08:46:48;12.90;52.70
52036;DHT22;38046;49.448;32.074;2023-04-29T08:49:15;12.90;52.70
52036;DHT22;38046;49.448;32.074;2023-04-29T08:51:40;12.90;53.00
52036;DHT22;38046;49.448;32.074;2023-04-29T08:54:06;12.90;52.80
52036;DHT22;38046;49.448;32.074;2023-04-29T08:56:32;13.00;53.00
52036;DHT22;38046;49.448;32.074;2023-04-29T08:59:00;13.00;52.90
52036;DHT22;38046;49.448;32.074;2023-04-29T09:01:28;13.00;52.60
52036;DHT22;38046;49.448;32.074;2023-04-29T09:06:42;13.00;52.60
52036;DHT22;38046;49.448;32.074;2023-04-29T09:09:08;13.10;53.00
52036;DHT22;38046;49.448;32.074;2023-04-29T09:11:36;13.10;53.10
52036;DHT22;38046;49.448;32.074;2023-04-29T09:14:02;13.20;52.90
52036;DHT22;38046;49.448;32.074;2023-04-29T09:16:28;13.20;52.70
52036;DHT22;38046;49.448;32.074;2023-04-29T09:18:55;13.20;52.40
52036;DHT22;38046;49.448;32.074;2023-04-29T09:21:28;13.20;52.00
52036;DHT22;38046;49.448;32.074;2023-04-29T09:23:57;13.20;52.70
52036;DHT22;38046;49.448;32.074;2023-04-29T09:26:24;13.20;52.50
52036;DHT22;38046;49.448;32.074;2023-04-29T09:29:06;13.20;52.80
52036;DHT22;38046;49.448;32.074;2023-04-29T09:31:32;13.30;53.30
52036;DHT22;38046;49.448;32.074;2023-04-29T09:33:58;13.30;53.50
52036;DHT22;38046;49.448;32.074;2023-04-29T09:39:12;13.30;52.00
52036;DHT22;38046;49.448;32.074;2023-04-29T09:41:39;13.30;52.30
52036;DHT22;38046;49.448;32.074;2023-04-29T09:44:06;13.30;52.50
52036;DHT22;38046;49.448;32.074;2023-04-29T09:46:32;13.30;52.80
52036;DHT22;38046;49.448;32.074;2023-04-29T09:48:59;13.30;53.00
52036;DHT22;38046;49.448;32.074;2023-04-29T09:51:25;13.30;52.90
52036;DHT22;38046;49.448;32.074;2023-04-29T09:53:51;13.40;52.90
52036;DHT22;38046;49.448;32.074;2023-04-29T09:56:16;13.40;52.30
52036;DHT22;38046;49.448;32.074;2023-04-29T09:58:42;13.40;52.40
52036;DHT22;38046;49.448;32.074;2023-04-29T10:01:08;13.40;52.30
52036;DHT22;38046;49.448;32.074;2023-04-29T10:03:38;13.40;52.30
52036;DHT22;38046;49.448;32.074;2023-04-29T10:06:05;13.30;52.30
52036;DHT22;38046;49.448;32.074;2023-04-29T10:08:32;13.30;52.30
52036;DHT22;38046;49.448;32.074;2023-04-29T10:10:59;13.30;52.10
52036;DHT22;38046;49.448;32.074;2023-04-29T10:13:26;13.30;51.50
52036;DHT22;38046;49.448;32.074;2023-04-29T10:18:48;13.30;52.20
52036;DHT22;38046;49.448;32.074;2023-04-29T10:21:17;13.30;52.90
52036;DHT22;38046;49.448;32.074;2023-04-29T10:23:47;13.30;53.20
52036;DHT22;38046;49.448;32.074;2023-04-29T10:26:14;13.40;53.40
52036;DHT22;38046;49.448;32.074;2023-04-29T10:28:42;13.40;53.40
52036;DHT22;38046;49.448;32.074;2023-04-29T10:31:11;13.40;53.30
52036;DHT22;38046;49.448;32.074;2023-04-29T10:33:39;13.40;52.60
52036;DHT22;38046;49.448;32.074;2023-04-29T10:36:08;13.30;52.20
52036;DHT22;38046;49.448;32.074;2023-04-29T10:38:47;13.30;51.90
52036;DHT22;38046;49.448;32.074;2023-04-29T10:41:22;13.30;52.50
52036;DHT22;38046;49.448;32.074;2023-04-29T10:43:53;13.30;52.60
52036;DHT22;38046;49.448;32.074;2023-04-29T10:46:24;13.30;52.60
52036;DHT22;38046;49.448;32.074;2023-04-29T10:48:59;13.30;52.60
52036;DHT22;38046;49.448;32.074;2023-04-29T10:51:44;13.30;51.90
52036;DHT22;38046;49.448;32.074;2023-04-29T10:54:17;13.30;51.40
52036;DHT22;38046;49.448;32.074;2023-04-29T10:56:51;13.20;51.60
52036;DHT22;38046;49.448;32.074;2023-04-29T10:59:22;13.20;51.60
52036;DHT22;38046;49.448;32.074;2023-04-29T11:02:08;13.20;51.60
52036;DHT22;38046;49.448;32.074;2023-04-29T11:04:34;13.20;51.70
52036;DHT22;38046;49.448;32.074;2023-04-29T11:06:59;13.20;51.90
52036;DHT22;38046;49.448;32.074;2023-04-29T11:09:34;13.20;52.00
52036;DHT22;38046;49.448;32.074;2023-04-29T11:12:03;13.20;52.50
52036;DHT22;38046;49.448;32.074;2023-04-29T11:14:35;13.20;52.70
52036;DHT22;38046;49.448;32.074;2023-04-29T11:17:12;13.30;51.90
52036;DHT22;38046;49.448;32.074;2023-04-29T11:19:42;13.30;52.30
52036;DHT22;38046;49.448;32.074;2023-04-29T11:24:53;13.30;52.00
52036;DHT22;38046;49.448;32.074;2023-04-29T11:27:20;13.20;51.50
52036;DHT22;38046;49.448;32.074;2023-04-29T11:29:50;13.20;52.30
52036;DHT22;38046;49.448;32.074;2023-04-29T11:32:19;13.20;52.30
52036;DHT22;38046;49.448;32.074;2023-04-29T11:34:46;13.20;52.50
52036;DHT22;38046;49.448;32.074;2023-04-29T11:37:11;13.20;52.90
52036;DHT22;38046;49.448;32.074;2023-04-29T11:39:37;13.20;53.20
52036;DHT22;38046;49.448;32.074;2023-04-29T11:42:07;13.20;53.00
52036;DHT22;38046;49.448;32.074;2023-04-29T11:44:33;13.20;52.50
52036;DHT22;38046;49.448;32.074;2023-04-29T11:47:01;13.20;52.00
52036;DHT22;38046;49.448;32.074;2023-04-29T11:49:33;13.20;52.20
52036;DHT22;38046;49.448;32.074;2023-04-29T11:51:59;13.20;52.20
52036;DHT22;38046;49.448;32.074;2023-04-29T11:54:26;13.30;53.30
52036;DHT22;38046;49.448;32.074;2023-04-29T11:56:53;13.30;52.60
52036;DHT22;38046;49.448;32.074;2023-04-29T11:59:20;13.30;52.60
52036;DHT22;38046;49.448;32.074;2023-04-29T12:01:49;13.30;52.50
52036;DHT22;38046;49.448;32.074;2023-04-29T12:04:15;13.30;52.00
52036;DHT22;38046;49.448;32.074;2023-04-29T12:06:41;13.30;52.30
52036;DHT22;38046;49.448;32.074;2023-04-29T12:09:07;13.30;52.70
52036;DHT22;38046;49.448;32.074;2023-04-29T12:11:33;13.30;52.80
52036;DHT22;38046;49.448;32.074;2023-04-29T12:14:00;13.40;52.20
52036;DHT22;38046;49.448;32.074;2023-04-29T12:16:28;13.40;52.80
52036;DHT22;38046;49.448;32.074;2023-04-29T12:18:55;13.40;52.90
52036;DHT22;38046;49.448;32.074;2023-04-29T12:21:21;13.50;52.60
52036;DHT22;38046;49.448;32.074;2023-04-29T12:23:47;13.50;51.90
52036;DHT22;38046;49.448;32.074;2023-04-29T12:26:13;13.50;51.80
52036;DHT22;38046;49.448;32.074;2023-04-29T12:28:42;13.60;51.70
52036;DHT22;38046;49.448;32.074;2023-04-29T12:31:09;13.60;51.70
52036;DHT22;38046;49.448;32.074;2023-04-29T12:33:37;13.60;51.40
52036;DHT22;38046;49.448;32.074;2023-04-29T12:36:17;13.70;51.20
52036;DHT22;38046;49.448;32.074;2023-04-29T12:38:44;13.70;51.60
52036;DHT22;38046;49.448;32.074;2023-04-29T12:41:11;13.70;51.30
52036;DHT22;38046;49.448;32.074;2023-04-29T12:43:38;13.70;50.90
52036;DHT22;38046;49.448;32.074;2023-04-29T12:46:06;13.80;51.10
52036;DHT22;38046;49.448;32.074;2023-04-29T12:48:36;13.80;51.00
52036;DHT22;38046;49.448;32.074;2023-04-29T12:51:19;13.80;50.70
52036;DHT22;38046;49.448;32.074;2023-04-29T12:53:45;13.80;51.10
52036;DHT22;38046;49.448;32.074;2023-04-29T12:56:11;13.80;51.40
52036;DHT22;38046;49.448;32.074;2023-04-29T12:58:37;13.80;51.00
52036;DHT22;38046;49.448;32.074;2023-04-29T13:01:03;13.80;50.80
52036;DHT22;38046;49.448;32.074;2023-04-29T13:03:28;13.80;50.70
52036;DHT22;38046;49.448;32.074;2023-04-29T13:05:54;13.90;50.00
52036;DHT22;38046;49.448;32.074;2023-04-29T13:08:20;13.90;49.80
52036;DHT22;38046;49.448;32.074;2023-04-29T13:10:46;13.90;50.00
52036;DHT22;38046;49.448;32.074;2023-04-29T13:13:11;13.90;49.90
52036;DHT22;38046;49.448;32.074;2023-04-29T13:15:37;13.90;49.50
52036;DHT22;38046;49.448;32.074;2023-04-29T13:18:06;13.90;49.40
52036;DHT22;38046;49.448;32.074;2023-04-29T13:20:32;13.90;49.20
52036;DHT22;38046;49.448;32.074;2023-04-29T13:22:58;13.90;49.40
52036;DHT22;38046;49.448;32.074;2023-04-29T13:25:23;14.00;50.10
52036;DHT22;38046;49.448;32.074;2023-04-29T13:27:49;14.10;50.50
52036;DHT22;38046;49.448;32.074;2023-04-29T13:30:15;14.00;50.30
52036;DHT22;38046;49.448;32.074;2023-04-29T13:32:40;14.10;50.00
52036;DHT22;38046;49.448;32.074;2023-04-29T13:35:07;14.10;49.90
52036;DHT22;38046;49.448;32.074;2023-04-29T13:37:33;14.10;50.30
52036;DHT22;38046;49.448;32.074;2023-04-29T13:39:59;14.10;50.50
52036;DHT22;38046;49.448;32.074;2023-04-29T13:42:24;14.20;50.60
52036;DHT22;38046;49.448;32.074;2023-04-29T13:44:50;14.20;49.60
52036;DHT22;38046;49.448;32.074;2023-04-29T13:47:18;14.20;49.80
52036;DHT22;38046;49.448;32.074;2023-04-29T13:49:43;14.20;49.90
52036;DHT22;38046;49.448;32.074;2023-04-29T13:52:10;14.20;49.90
52036;DHT22;38046;49.448;32.074;2023-04-29T13:54:36;14.30;50.40
52036;DHT22;38046;49.448;32.074;2023-04-29T13:57:02;14.30;50.30
52036;DHT22;38046;49.448;32.074;2023-04-29T13:59:29;14.30;49.50
52036;DHT22;38046;49.448;32.074;2023-04-29T14:01:55;14.30;49.10
52036;DHT22;38046;49.448;32.074;2023-04-29T14:04:21;14.40;49.20
52036;DHT22;38046;49.448;32.074;2023-04-29T14:06:47;14.40;48.80
52036;DHT22;38046;49.448;32.074;2023-04-29T14:09:13;14.40;48.90
52036;DHT22;38046;49.448;32.074;2023-04-29T14:11:38;14.50;49.50
52036;DHT22;38046;49.448;32.074;2023-04-29T14:14:04;14.50;50.30
52036;DHT22;38046;49.448;32.074;2023-04-29T14:16:30;14.50;50.10
52036;DHT22;38046;49.448;32.074;2023-04-29T14:18:56;14.50;49.70
52036;DHT22;38046;49.448;32.074;2023-04-29T14:21:22;14.50;49.90
52036;DHT22;38046;49.448;32.074;2023-04-29T14:23:48;14.50;49.60
52036;DHT22;38046;49.448;32.074;2023-04-29T14:26:14;14.50;49.80
52036;DHT22;38046;49.448;32.074;2023-04-29T14:28:40;14.50;49.30
52036;DHT22;38046;49.448;32.074;2023-04-29T14:31:05;14.50;49.70
52036;DHT22;38046;49.448;32.074;2023-04-29T14:33:31;14.50;49.80
52036;DHT22;38046;49.448;32.074;2023-04-29T14:35:57;14.50;49.90
52036;DHT22;38046;49.448;32.074;2023-04-29T14:38:23;14.50;49.80
52036;DHT22;38046;49.448;32.074;2023-04-29T14:40:48;14.50;49.90
52036;DHT22;38046;49.448;32.074;2023-04-29T14:43:14;14.50;50.30
52036;DHT22;38046;49.448;32.074;2023-04-29T14:45:40;14.50;50.60
52036;DHT22;38046;49.448;32.074;2023-04-29T14:48:06;14.50;50.90
52036;DHT22;38046;49.448;32.074;2023-04-29T14:50:32;14.50;51.00
52036;DHT22;38046;49.448;32.074;2023-04-29T14:52:57;14.50;50.90
52036;DHT22;38046;49.448;32.074;2023-04-29T14:55:24;14.50;51.50
52036;DHT22;38046;49.448;32.074;2023-04-29T14:57:50;14.50;52.00
52036;DHT22;38046;49.448;32.074;2023-04-29T15:00:16;14.50;51.50
52036;DHT22;38046;49.448;32.074;2023-04-29T15:02:41;14.50;51.10
52036;DHT22;38046;49.448;32.074;2023-04-29T15:05:07;14.50;51.20
52036;DHT22;38046;49.448;32.074;2023-04-29T15:07:33;14.50;51.20
52036;DHT22;38046;49.448;32.074;2023-04-29T15:09:58;14.50;51.50
52036;DHT22;38046;49.448;32.074;2023-04-29T15:12:24;14.60;51.30
52036;DHT22;38046;49.448;32.074;2023-04-29T15:14:50;14.60;51.70
52036;DHT22;38046;49.448;32.074;2023-04-29T15:17:17;14.60;51.60
52036;DHT22;38046;49.448;32.074;2023-04-29T15:19:43;14.60;51.20
52036;DHT22;38046;49.448;32.074;2023-04-29T15:22:08;14.60;51.40
52036;DHT22;38046;49.448;32.074;2023-04-29T15:24:35;14.60;51.40
52036;DHT22;38046;49.448;32.074;2023-04-29T15:27:00;14.50;51.20
52036;DHT22;38046;49.448;32.074;2023-04-29T15:29:26;14.50;51.20
52036;DHT22;38046;49.448;32.074;2023-04-29T15:31:52;14.50;50.90
52036;DHT22;38046;49.448;32.074;2023-04-29T15:34:18;14.50;51.00